createdAt,value
2019-05-15T00:00:35.650Z,0.00
2019-05-15T00:01:40.700Z,0.00
2019-05-15T00:02:38.679Z,0.00
2019-05-15T00:03:38.839Z,0.00
2019-05-15T00:04:35.622Z,0.00
2019-05-15T00:05:35.598Z,0.00
2019-05-15T00:06:35.590Z,0.00
2019-05-15T00:07:35.574Z,0.00
2019-05-15T00:08:35.590Z,0.00
2019-05-15T00:09:37.897Z,0.00
2019-05-15T00:10:38.967Z,0.00
2019-05-15T00:11:35.534Z,0.00
2019-05-15T00:12:35.530Z,0.00
2019-05-15T00:13:35.506Z,0.00
2019-05-15T00:14:35.495Z,0.00
2019-05-15T00:15:35.502Z,0.00
2019-05-15T00:16:35.494Z,0.00
2019-05-15T00:17:35.462Z,0.00
2019-05-15T00:18:35.450Z,0.00
2019-05-15T00:19:35.454Z,0.00
2019-05-15T00:20:35.454Z,0.00
2019-05-15T00:21:35.446Z,0.00
2019-05-15T00:22:35.406Z,0.00
2019-05-15T00:23:35.410Z,0.00
2019-05-15T00:24:35.382Z,0.00
2019-05-15T00:25:35.388Z,0.00
2019-05-15T00:26:35.370Z,0.00
2019-05-15T00:27:35.366Z,0.00
2019-05-15T00:28:35.338Z,0.00
2019-05-15T00:29:35.354Z,0.00
2019-05-15T00:30:35.317Z,0.00
2019-05-15T00:31:35.306Z,0.00
2019-05-15T00:32:35.294Z,0.00
2019-05-15T00:33:35.321Z,0.00
2019-05-15T00:34:35.269Z,0.00
2019-05-15T00:35:35.262Z,0.00
2019-05-15T00:36:35.254Z,0.00
2019-05-15T00:37:35.234Z,0.00
2019-05-15T00:38:35.213Z,0.00
2019-05-15T00:39:35.221Z,0.00
2019-05-15T00:40:35.197Z,0.00
2019-05-15T00:41:48.317Z,0.00
2019-05-15T00:42:38.437Z,0.00
2019-05-15T00:43:35.161Z,0.00
2019-05-15T00:44:35.165Z,0.00
2019-05-15T00:45:35.148Z,0.00
2019-05-15T00:46:35.157Z,0.00
2019-05-15T00:47:35.117Z,0.00
2019-05-15T00:48:35.123Z,0.00
2019-05-15T00:49:35.092Z,0.00
2019-05-15T00:50:35.097Z,0.00
2019-05-15T00:51:35.089Z,0.00
2019-05-15T00:52:35.057Z,0.00
2019-05-15T00:53:35.049Z,0.00
2019-05-15T00:54:35.041Z,0.00
2019-05-15T00:55:35.021Z,0.00
2019-05-15T00:56:35.057Z,0.00
2019-05-15T00:57:35.010Z,0.00
2019-05-15T00:58:34.993Z,0.00
2019-05-15T00:59:35.002Z,0.00
2019-05-15T01:00:34.969Z,0.00
2019-05-15T01:01:34.957Z,0.00
2019-05-15T01:02:34.964Z,0.00
2019-05-15T01:03:34.942Z,0.00
2019-05-15T01:04:34.932Z,0.00
2019-05-15T01:05:34.929Z,0.00
2019-05-15T01:06:34.928Z,0.00
2019-05-15T01:07:34.905Z,0.00
2019-05-15T01:08:34.890Z,0.00
2019-05-15T01:09:34.879Z,0.00
2019-05-15T01:10:34.870Z,0.00
2019-05-15T01:11:34.869Z,0.00
2019-05-15T01:12:34.837Z,0.00
2019-05-15T01:13:34.841Z,0.00
2019-05-15T01:14:34.812Z,0.00
2019-05-15T01:15:34.808Z,0.00
2019-05-15T01:16:34.788Z,0.00
2019-05-15T01:17:34.801Z,0.00
2019-05-15T01:18:34.781Z,0.00
2019-05-15T01:19:34.760Z,0.00
2019-05-15T01:20:34.747Z,0.00
2019-05-15T01:21:34.737Z,0.00
2019-05-15T01:22:34.740Z,0.00
2019-05-15T01:23:34.738Z,0.00
2019-05-15T01:24:34.701Z,0.00
2019-05-15T01:25:34.697Z,0.00
2019-05-15T01:26:34.680Z,0.00
2019-05-15T01:27:34.666Z,0.00
2019-05-15T01:28:34.721Z,0.00
2019-05-15T01:29:41.868Z,0.00
2019-05-15T01:30:35.649Z,0.00
2019-05-15T01:31:34.638Z,0.00
2019-05-15T01:32:34.665Z,0.00
2019-05-15T01:33:34.601Z,0.00
2019-05-15T01:34:34.608Z,0.00
2019-05-15T01:35:34.581Z,0.00
2019-05-15T01:36:34.570Z,0.00
2019-05-15T01:37:34.560Z,0.00
2019-05-15T01:38:34.548Z,0.00
2019-05-15T01:39:34.536Z,0.00
2019-05-15T01:40:34.536Z,0.00
2019-05-15T01:41:34.508Z,0.00
2019-05-15T01:42:34.501Z,0.00
2019-05-15T01:43:34.496Z,0.00
2019-05-15T01:44:34.488Z,0.00
2019-05-15T01:45:34.469Z,0.00
2019-05-15T01:46:34.477Z,0.00
2019-05-15T01:47:34.448Z,0.00
2019-05-15T01:48:34.433Z,0.00
2019-05-15T01:49:34.428Z,0.00
2019-05-15T01:50:34.437Z,0.00
2019-05-15T01:51:34.417Z,0.00
2019-05-15T01:52:34.388Z,0.00
2019-05-15T01:53:34.405Z,0.00
2019-05-15T01:54:34.369Z,0.00
2019-05-15T01:55:34.356Z,0.00
2019-05-15T01:56:34.349Z,0.00
2019-05-15T01:57:34.333Z,0.00
2019-05-15T01:58:34.341Z,0.00
2019-05-15T01:59:34.345Z,0.00
2019-05-15T02:00:34.329Z,0.00
2019-05-15T02:01:34.292Z,0.00
2019-05-15T02:02:34.277Z,0.00
2019-05-15T02:03:34.289Z,0.00
2019-05-15T02:04:34.263Z,0.00
2019-05-15T02:05:34.254Z,0.00
2019-05-15T02:06:34.260Z,0.00
2019-05-15T02:07:34.224Z,0.00
2019-05-15T02:08:34.241Z,0.00
2019-05-15T02:09:34.204Z,0.00
2019-05-15T02:10:34.193Z,0.00
2019-05-15T02:11:34.185Z,0.00
2019-05-15T02:12:34.202Z,0.00
2019-05-15T02:13:34.160Z,0.00
2019-05-15T02:14:34.153Z,0.00
2019-05-15T02:15:34.172Z,0.00
2019-05-15T02:16:34.128Z,0.00
2019-05-15T02:17:34.116Z,0.00
2019-05-15T02:18:34.124Z,0.00
2019-05-15T02:19:34.097Z,0.00
2019-05-15T02:20:34.081Z,0.00
2019-05-15T02:21:34.072Z,0.00
2019-05-15T02:22:34.057Z,0.00
2019-05-15T02:23:34.053Z,0.00
2019-05-15T02:24:34.059Z,0.00
2019-05-15T02:25:34.028Z,0.00
2019-05-15T02:26:34.013Z,0.00
2019-05-15T02:27:34.000Z,0.00
2019-05-15T02:28:33.988Z,0.00
2019-05-15T02:29:33.977Z,0.00
2019-05-15T02:30:34.481Z,0.00
2019-05-15T02:31:33.961Z,0.00
2019-05-15T02:32:33.946Z,0.00
2019-05-15T02:33:33.938Z,0.00
2019-05-15T02:34:33.953Z,0.00
2019-05-15T02:35:33.912Z,0.00
2019-05-15T02:36:33.917Z,0.00
2019-05-15T02:37:33.897Z,0.00
2019-05-15T02:38:33.878Z,0.00
2019-05-15T02:39:33.880Z,0.00
2019-05-15T02:40:33.860Z,0.00
2019-05-15T02:41:33.881Z,0.00
2019-05-15T02:42:33.834Z,0.00
2019-05-15T02:43:33.825Z,0.00
2019-05-15T02:44:33.842Z,0.00
2019-05-15T02:45:36.790Z,0.00
2019-05-15T02:46:34.813Z,0.00
2019-05-15T02:47:33.777Z,0.00
2019-05-15T02:48:33.776Z,0.00
2019-05-15T02:49:33.757Z,0.00
2019-05-15T02:50:33.753Z,0.00
2019-05-15T02:51:33.748Z,0.00
2019-05-15T02:52:33.734Z,0.00
2019-05-15T02:53:33.730Z,0.00
2019-05-15T02:54:33.701Z,0.00
2019-05-15T02:55:33.688Z,0.00
2019-05-15T02:56:33.684Z,0.00
2019-05-15T02:57:33.674Z,0.00
2019-05-15T02:58:33.661Z,0.00
2019-05-15T02:59:33.664Z,4.00
2019-05-15T03:00:44.074Z,4.00
2019-05-15T03:01:34.620Z,4.00
2019-05-15T03:02:33.617Z,0.00
2019-05-15T03:03:33.605Z,4.00
2019-05-15T03:04:33.592Z,4.00
2019-05-15T03:05:33.606Z,4.00
2019-05-15T03:06:33.579Z,4.00
2019-05-15T03:07:33.557Z,8.00
2019-05-15T03:08:33.561Z,4.00
2019-05-15T03:09:33.536Z,4.00
2019-05-15T03:10:33.538Z,8.00
2019-05-15T03:11:33.532Z,8.00
2019-05-15T03:12:33.505Z,8.00
2019-05-15T03:13:33.494Z,12.00
2019-05-15T03:14:33.485Z,12.00
2019-05-15T03:15:33.485Z,16.00
2019-05-15T03:16:33.459Z,16.00
2019-05-15T03:17:33.447Z,16.00
2019-05-15T03:18:33.459Z,24.00
2019-05-15T03:19:33.436Z,24.00
2019-05-15T03:20:33.453Z,28.00
2019-05-15T03:21:33.406Z,32.00
2019-05-15T03:22:33.396Z,36.00
2019-05-15T03:23:33.398Z,36.00
2019-05-15T03:24:33.385Z,44.00
2019-05-15T03:25:33.369Z,48.00
2019-05-15T03:26:33.369Z,52.00
2019-05-15T03:27:34.861Z,56.00
2019-05-15T03:28:33.329Z,64.00
2019-05-15T03:29:33.317Z,68.00
2019-05-15T03:31:02.635Z,80.00
2019-05-15T03:31:50.346Z,88.00
2019-05-15T03:32:43.656Z,96.00
2019-05-15T03:33:36.848Z,100.00
2019-05-15T03:34:38.132Z,112.00
2019-05-15T03:35:34.260Z,124.00
2019-05-15T03:36:33.238Z,132.00
2019-05-15T03:37:34.338Z,144.00
2019-05-15T03:38:33.221Z,160.00
2019-05-15T03:39:33.212Z,168.00
2019-05-15T03:40:33.190Z,184.00
2019-05-15T03:41:33.181Z,196.00
2019-05-15T03:42:33.183Z,208.00
2019-05-15T03:43:33.191Z,224.00
2019-05-15T03:44:33.161Z,236.00
2019-05-15T03:45:33.142Z,252.00
2019-05-15T03:46:33.129Z,268.00
2019-05-15T03:47:33.117Z,284.00
2019-05-15T03:48:33.111Z,300.00
2019-05-15T03:49:33.117Z,312.00
2019-05-15T03:50:33.088Z,332.00
2019-05-15T03:51:33.073Z,348.00
2019-05-15T03:52:33.073Z,364.00
2019-05-15T03:53:33.049Z,384.00
2019-05-15T03:54:33.045Z,400.00
2019-05-15T03:55:33.045Z,416.00
2019-05-15T03:56:33.033Z,436.00
2019-05-15T03:57:33.001Z,456.00
2019-05-15T03:58:32.996Z,468.00
2019-05-15T03:59:32.986Z,492.00
2019-05-15T04:00:33.006Z,504.00
2019-05-15T04:01:38.805Z,524.00
2019-05-15T04:02:33.952Z,540.00
2019-05-15T04:03:32.941Z,560.00
2019-05-15T04:04:32.929Z,580.00
2019-05-15T04:05:32.932Z,596.00
2019-05-15T04:06:32.904Z,612.00
2019-05-15T04:07:32.899Z,628.00
2019-05-15T04:08:32.885Z,648.00
2019-05-15T04:09:32.890Z,664.00
2019-05-15T04:10:32.877Z,680.00
2019-05-15T04:11:32.861Z,696.00
2019-05-15T04:12:32.836Z,712.00
2019-05-15T04:13:32.841Z,728.00
2019-05-15T04:14:32.814Z,748.00
2019-05-15T04:15:32.802Z,764.00
2019-05-15T04:16:32.805Z,776.00
2019-05-15T04:17:32.780Z,796.00
2019-05-15T04:18:32.801Z,808.00
2019-05-15T04:19:32.805Z,828.00
2019-05-15T04:20:32.758Z,844.00
2019-05-15T04:21:32.781Z,856.00
2019-05-15T04:22:32.729Z,872.00
2019-05-15T04:23:32.720Z,884.00
2019-05-15T04:24:32.726Z,900.00
2019-05-15T04:25:32.703Z,916.00
2019-05-15T04:26:32.692Z,928.00
2019-05-15T04:27:32.706Z,940.00
2019-05-15T04:28:32.665Z,952.00
2019-05-15T04:29:32.653Z,968.00
2019-05-15T04:30:32.637Z,980.00
2019-05-15T04:31:50.600Z,996.00
2019-05-15T04:32:33.633Z,1008.00
2019-05-15T04:33:32.612Z,1020.00
2019-05-15T04:34:32.636Z,1032.00
2019-05-15T04:35:32.588Z,1044.00
2019-05-15T04:36:32.596Z,1060.00
2019-05-15T04:37:32.562Z,1072.00
2019-05-15T04:38:32.565Z,1084.00
2019-05-15T04:39:32.534Z,1092.00
2019-05-15T04:40:32.538Z,1108.00
2019-05-15T04:41:32.516Z,1120.00
2019-05-15T04:42:32.506Z,1132.00
2019-05-15T04:43:41.323Z,1140.00
2019-05-15T04:44:33.484Z,1152.00
2019-05-15T04:45:35.221Z,1160.00
2019-05-15T04:46:32.463Z,1176.00
2019-05-15T04:47:32.453Z,1184.00
2019-05-15T04:48:32.449Z,1196.00
2019-05-15T04:49:32.453Z,1204.00
2019-05-15T04:50:32.414Z,1212.00
2019-05-15T04:51:32.401Z,1224.00
2019-05-15T04:52:32.389Z,1232.00
2019-05-15T04:53:33.095Z,1240.00
2019-05-15T04:54:32.409Z,1248.00
2019-05-15T04:55:32.369Z,1260.00
2019-05-15T04:56:32.366Z,1268.00
2019-05-15T04:57:33.998Z,1276.00
2019-05-15T04:58:32.357Z,1284.00
2019-05-15T04:59:32.317Z,1292.00
2019-05-15T05:00:32.328Z,1304.00
2019-05-15T05:01:32.304Z,1312.00
2019-05-15T05:02:32.607Z,1320.00
2019-05-15T05:03:34.646Z,1324.00
2019-05-15T05:04:32.302Z,1332.00
2019-05-15T05:05:32.246Z,1344.00
2019-05-15T05:06:32.260Z,1352.00
2019-05-15T05:07:32.245Z,1360.00
2019-05-15T05:08:32.231Z,1368.00
2019-05-15T05:09:32.223Z,1372.00
2019-05-15T05:10:32.193Z,1384.00
2019-05-15T05:11:32.188Z,1388.00
2019-05-15T05:12:32.192Z,1400.00
2019-05-15T05:13:32.173Z,1404.00
2019-05-15T05:14:32.152Z,1416.00
2019-05-15T05:15:32.140Z,1420.00
2019-05-15T05:16:32.151Z,1428.00
2019-05-15T05:17:32.128Z,1436.00
2019-05-15T05:18:32.118Z,1444.00
2019-05-15T05:19:32.120Z,1456.00
2019-05-15T05:20:32.084Z,1464.00
2019-05-15T05:21:32.072Z,1472.00
2019-05-15T05:22:32.084Z,1484.00
2019-05-15T05:23:32.068Z,1496.00
2019-05-15T05:24:32.044Z,1504.00
2019-05-15T05:25:32.029Z,1516.00
2019-05-15T05:26:32.048Z,1528.00
2019-05-15T05:27:32.001Z,1536.00
2019-05-15T05:28:31.997Z,1552.00
2019-05-15T05:29:32.000Z,1560.00
2019-05-15T05:30:32.008Z,1572.00
2019-05-15T05:31:31.963Z,1584.00
2019-05-15T05:32:35.004Z,1596.00
2019-05-15T05:33:31.948Z,1604.00
2019-05-15T05:34:31.928Z,1612.00
2019-05-15T05:35:31.928Z,1620.00
2019-05-15T05:36:31.924Z,1632.00
2019-05-15T05:37:31.895Z,1640.00
2019-05-15T05:38:31.901Z,1644.00
2019-05-15T05:39:31.875Z,1656.00
2019-05-15T05:40:31.860Z,1660.00
2019-05-15T05:41:31.848Z,1668.00
2019-05-15T05:42:31.840Z,1676.00
2019-05-15T05:43:31.844Z,1680.00
2019-05-15T05:44:31.823Z,1688.00
2019-05-15T05:45:31.824Z,1692.00
2019-05-15T05:46:31.800Z,1700.00
2019-05-15T05:47:31.792Z,1704.00
2019-05-15T05:48:31.776Z,1712.00
2019-05-15T05:49:31.776Z,1716.00
2019-05-15T05:50:31.748Z,1724.00
2019-05-15T05:51:31.744Z,1728.00
2019-05-15T05:52:31.727Z,1732.00
2019-05-15T05:53:31.741Z,1736.00
2019-05-15T05:54:31.704Z,1744.00
2019-05-15T05:55:31.701Z,1752.00
2019-05-15T05:56:31.704Z,1756.00
2019-05-15T05:57:31.704Z,1768.00
2019-05-15T05:58:31.660Z,1768.00
2019-05-15T05:59:31.648Z,1772.00
2019-05-15T06:00:31.658Z,1780.00
2019-05-15T06:01:31.629Z,1788.00
2019-05-15T06:02:43.670Z,1792.00
2019-05-15T06:03:32.608Z,1796.00
2019-05-15T06:04:31.597Z,1800.00
2019-05-15T06:05:31.635Z,1808.00
2019-05-15T06:06:31.590Z,1812.00
2019-05-15T06:07:31.562Z,1816.00
2019-05-15T06:08:31.552Z,1820.00
2019-05-15T06:09:31.536Z,1824.00
2019-05-15T06:10:31.528Z,1832.00
2019-05-15T06:11:31.540Z,1836.00
2019-05-15T06:12:31.506Z,1840.00
2019-05-15T06:13:31.504Z,1848.00
2019-05-15T06:14:31.485Z,1848.00
2019-05-15T06:15:31.472Z,1856.00
2019-05-15T06:16:31.459Z,1860.00
2019-05-15T06:17:31.452Z,1868.00
2019-05-15T06:18:31.444Z,1868.00
2019-05-15T06:19:31.540Z,1872.00
2019-05-15T06:20:31.416Z,1880.00
2019-05-15T06:21:31.501Z,1884.00
2019-05-15T06:22:31.396Z,1884.00
2019-05-15T06:23:35.066Z,1892.00
2019-05-15T06:24:31.368Z,1896.00
2019-05-15T06:25:31.396Z,1904.00
2019-05-15T06:26:31.356Z,1908.00
2019-05-15T06:27:31.348Z,1908.00
2019-05-15T06:28:31.328Z,1912.00
2019-05-15T06:29:31.340Z,1916.00
2019-05-15T06:30:31.434Z,1920.00
2019-05-15T06:31:31.339Z,1924.00
2019-05-15T06:32:31.285Z,1932.00
2019-05-15T06:33:31.268Z,1932.00
2019-05-15T06:34:31.260Z,1936.00
2019-05-15T06:35:31.533Z,1944.00
2019-05-15T06:36:31.236Z,1944.00
2019-05-15T06:37:31.244Z,1948.00
2019-05-15T06:38:31.278Z,1952.00
2019-05-15T06:39:31.204Z,1960.00
2019-05-15T06:40:31.208Z,1960.00
2019-05-15T06:41:33.836Z,1960.00
2019-05-15T06:42:31.182Z,1968.00
2019-05-15T06:43:31.202Z,1972.00
2019-05-15T06:44:31.148Z,1976.00
2019-05-15T06:45:31.136Z,1980.00
2019-05-15T06:46:31.136Z,1980.00
2019-05-15T06:47:31.112Z,1984.00
2019-05-15T06:48:31.100Z,1988.00
2019-05-15T06:49:31.104Z,1992.00
2019-05-15T06:50:31.079Z,2000.00
2019-05-15T06:51:31.072Z,2004.00
2019-05-15T06:52:31.072Z,2008.00
2019-05-15T06:53:31.084Z,2012.00
2019-05-15T06:54:31.048Z,2016.00
2019-05-15T06:55:31.040Z,2020.00
2019-05-15T06:56:31.012Z,2020.00
2019-05-15T06:57:31.000Z,2024.00
2019-05-15T06:58:30.992Z,2024.00
2019-05-15T06:59:31.000Z,2032.00
2019-05-15T07:00:30.975Z,2036.00
2019-05-15T07:01:30.960Z,2036.00
2019-05-15T07:02:30.952Z,2040.00
2019-05-15T07:03:30.957Z,2044.00
2019-05-15T07:04:30.924Z,2048.00
2019-05-15T07:05:30.946Z,2048.00
2019-05-15T07:06:30.904Z,2052.00
2019-05-15T07:07:30.896Z,2056.00
2019-05-15T07:08:30.916Z,2060.00
2019-05-15T07:09:30.877Z,2060.00
2019-05-15T07:10:30.874Z,2064.00
2019-05-15T07:11:30.848Z,2068.00
2019-05-15T07:12:30.836Z,2072.00
2019-05-15T07:13:30.829Z,2072.00
2019-05-15T07:14:30.820Z,2072.00
2019-05-15T07:15:30.804Z,2080.00
2019-05-15T07:16:30.792Z,2088.00
2019-05-15T07:17:30.780Z,2092.00
2019-05-15T07:18:30.797Z,2100.00
2019-05-15T07:19:30.784Z,2100.00
2019-05-15T07:20:30.753Z,2100.00
2019-05-15T07:21:30.740Z,2108.00
2019-05-15T07:22:30.724Z,2112.00
2019-05-15T07:23:30.926Z,2116.00
2019-05-15T07:24:30.704Z,2124.00
2019-05-15T07:25:30.704Z,2124.00
2019-05-15T07:26:30.703Z,2136.00
2019-05-15T07:27:30.668Z,2140.00
2019-05-15T07:28:30.755Z,2148.00
2019-05-15T07:29:30.654Z,2156.00
2019-05-15T07:30:30.652Z,2160.00
2019-05-15T07:31:30.644Z,2168.00
2019-05-15T07:32:30.642Z,2180.00
2019-05-15T07:33:39.726Z,2188.00
2019-05-15T07:34:31.596Z,2192.00
2019-05-15T07:35:30.580Z,2204.00
2019-05-15T07:36:30.584Z,2212.00
2019-05-15T07:37:30.559Z,2224.00
2019-05-15T07:38:30.641Z,2232.00
2019-05-15T07:39:30.540Z,2244.00
2019-05-15T07:40:30.538Z,2256.00
2019-05-15T07:41:30.509Z,2264.00
2019-05-15T07:42:30.508Z,2280.00
2019-05-15T07:43:30.519Z,2284.00
2019-05-15T07:44:30.541Z,2300.00
2019-05-15T07:45:30.479Z,2308.00
2019-05-15T07:46:30.460Z,2320.00
2019-05-15T07:47:30.444Z,2324.00
2019-05-15T07:48:30.456Z,2352.00
2019-05-15T07:49:30.433Z,2360.00
2019-05-15T07:50:30.408Z,2364.00
2019-05-15T07:51:30.396Z,2384.00
2019-05-15T07:52:30.447Z,2400.00
2019-05-15T07:53:30.401Z,2412.00
2019-05-15T07:54:30.415Z,2432.00
2019-05-15T07:55:30.361Z,2444.00
2019-05-15T07:56:30.368Z,2464.00
2019-05-15T07:57:30.340Z,2476.00
2019-05-15T07:58:30.328Z,2488.00
2019-05-15T07:59:30.323Z,2500.00
2019-05-15T08:00:30.353Z,2520.00
2019-05-15T08:01:30.305Z,2528.00
2019-05-15T08:02:30.280Z,2536.00
2019-05-15T08:03:30.284Z,2548.00
2019-05-15T08:04:32.916Z,2556.00
2019-05-15T08:05:30.279Z,2564.00
2019-05-15T08:06:30.242Z,2584.00
2019-05-15T08:07:30.372Z,2592.00
2019-05-15T08:08:30.264Z,2608.00
2019-05-15T08:09:30.260Z,2620.00
2019-05-15T08:10:30.226Z,2628.00
2019-05-15T08:11:30.928Z,2640.00
2019-05-15T08:12:30.175Z,2640.00
2019-05-15T08:13:30.340Z,2656.00
2019-05-15T08:14:30.152Z,2664.00
2019-05-15T08:15:30.143Z,2672.00
2019-05-15T08:16:30.136Z,2688.00
2019-05-15T08:17:30.156Z,2688.00
2019-05-15T08:18:30.100Z,2684.00
2019-05-15T08:19:30.156Z,2696.00
2019-05-15T08:20:30.104Z,2712.00
2019-05-15T08:21:30.083Z,2720.00
2019-05-15T08:22:30.052Z,2724.00
2019-05-15T08:23:30.072Z,2736.00
2019-05-15T08:24:30.101Z,2744.00
2019-05-15T08:25:35.085Z,2752.00
2019-05-15T08:26:31.020Z,2756.00
2019-05-15T08:27:30.106Z,2764.00
2019-05-15T08:28:29.987Z,2780.00
2019-05-15T08:29:29.984Z,2792.00
2019-05-15T08:30:29.980Z,2796.00
2019-05-15T08:31:29.976Z,2812.00
2019-05-15T08:32:29.947Z,2824.00
2019-05-15T08:33:29.936Z,2832.00
2019-05-15T08:34:29.915Z,2840.00
2019-05-15T08:35:29.964Z,2852.00
2019-05-15T08:36:31.378Z,2864.00
2019-05-15T08:37:29.939Z,2864.00
2019-05-15T08:38:29.901Z,2876.00
2019-05-15T08:39:29.876Z,2884.00
2019-05-15T08:40:29.852Z,2896.00
2019-05-15T08:41:29.878Z,2912.00
2019-05-15T08:42:32.068Z,2932.00
2019-05-15T08:43:31.391Z,2944.00
2019-05-15T08:44:29.805Z,2956.00
2019-05-15T08:45:29.874Z,2972.00
2019-05-15T08:46:29.788Z,2980.00
2019-05-15T08:47:29.893Z,3004.00
2019-05-15T08:48:32.621Z,3024.00
2019-05-15T08:49:29.764Z,3044.00
2019-05-15T08:50:29.740Z,3068.00
2019-05-15T08:51:29.732Z,3092.00
2019-05-15T08:52:29.721Z,3124.00
2019-05-15T08:53:29.800Z,3156.00
2019-05-15T08:54:29.716Z,3184.00
2019-05-15T08:55:29.692Z,3232.00
2019-05-15T08:56:29.689Z,3288.00
2019-05-15T08:57:29.665Z,3324.00
2019-05-15T08:58:29.651Z,3380.00
2019-05-15T08:59:29.711Z,3436.00
2019-05-15T09:00:29.644Z,3472.00
2019-05-15T09:01:29.623Z,3516.00
2019-05-15T09:02:29.611Z,3612.00
2019-05-15T09:03:29.613Z,3716.00
2019-05-15T09:04:34.659Z,3780.00
2019-05-15T09:05:30.672Z,3800.00
2019-05-15T09:06:29.584Z,3828.00
2019-05-15T09:07:29.560Z,3860.00
2019-05-15T09:08:29.611Z,3900.00
2019-05-15T09:09:29.541Z,3904.00
2019-05-15T09:10:29.520Z,3880.00
2019-05-15T09:11:29.524Z,3832.00
2019-05-15T09:12:29.657Z,3816.00
2019-05-15T09:13:29.532Z,3800.00
2019-05-15T09:14:29.471Z,3776.00
2019-05-15T09:15:29.527Z,3752.00
2019-05-15T09:16:29.476Z,3732.00
2019-05-15T09:17:29.440Z,3692.00
2019-05-15T09:18:29.428Z,3680.00
2019-05-15T09:19:29.431Z,3680.00
2019-05-15T09:20:29.444Z,3676.00
2019-05-15T09:21:29.388Z,3668.00
2019-05-15T09:22:29.410Z,3648.00
2019-05-15T09:23:29.403Z,3596.00
2019-05-15T09:24:29.384Z,3584.00
2019-05-15T09:25:29.352Z,3592.00
2019-05-15T09:26:29.340Z,3604.00
2019-05-15T09:27:29.329Z,3628.00
2019-05-15T09:28:29.829Z,3608.00
2019-05-15T09:29:29.323Z,3592.00
2019-05-15T09:30:29.292Z,3592.00
2019-05-15T09:31:29.277Z,3608.00
2019-05-15T09:32:29.268Z,3624.00
2019-05-15T09:33:29.275Z,3640.00
2019-05-15T09:34:46.447Z,3652.00
2019-05-15T09:35:30.264Z,3672.00
2019-05-15T09:36:29.224Z,3708.00
2019-05-15T09:37:29.229Z,3700.00
2019-05-15T09:38:29.220Z,3704.00
2019-05-15T09:39:29.215Z,3720.00
2019-05-15T09:40:42.549Z,3748.00
2019-05-15T09:41:30.168Z,3764.00
2019-05-15T09:42:29.192Z,3792.00
2019-05-15T09:43:29.164Z,3828.00
2019-05-15T09:44:29.140Z,3864.00
2019-05-15T09:45:29.152Z,3916.00
2019-05-15T09:46:29.305Z,3952.00
2019-05-15T09:47:29.679Z,4068.00
2019-05-15T09:48:29.091Z,4240.00
2019-05-15T09:49:29.080Z,4360.00
2019-05-15T09:50:29.065Z,4384.00
2019-05-15T09:51:29.188Z,4392.00
2019-05-15T09:52:30.120Z,4420.00
2019-05-15T09:53:29.040Z,4412.00
2019-05-15T09:54:29.521Z,4324.00
2019-05-15T09:55:29.088Z,4184.00
2019-05-15T09:56:29.203Z,4024.00
2019-05-15T09:57:30.149Z,3976.00
2019-05-15T09:58:30.237Z,3936.00
2019-05-15T09:59:28.972Z,3888.00
2019-05-15T10:00:29.330Z,3824.00
2019-05-15T10:01:28.996Z,3792.00
2019-05-15T10:02:28.936Z,3776.00
2019-05-15T10:03:28.921Z,3764.00
2019-05-15T10:04:29.203Z,3768.00
2019-05-15T10:05:28.945Z,3756.00
2019-05-15T10:06:28.897Z,3748.00
2019-05-15T10:07:28.879Z,3748.00
2019-05-15T10:08:29.391Z,3764.00
2019-05-15T10:09:28.868Z,3768.00
2019-05-15T10:10:28.882Z,3772.00
2019-05-15T10:11:29.085Z,3784.00
2019-05-15T10:12:34.571Z,3792.00
2019-05-15T10:13:29.830Z,3804.00
2019-05-15T10:14:29.698Z,3792.00
2019-05-15T10:15:28.787Z,3800.00
2019-05-15T10:16:28.780Z,3820.00
2019-05-15T10:17:29.175Z,3832.00
2019-05-15T10:18:28.762Z,3852.00
2019-05-15T10:19:29.101Z,3868.00
2019-05-15T10:20:29.214Z,3864.00
2019-05-15T10:21:32.282Z,3876.00
2019-05-15T10:22:28.711Z,3896.00
2019-05-15T10:23:29.360Z,3904.00
2019-05-15T10:24:28.695Z,3924.00
2019-05-15T10:25:28.676Z,3944.00
2019-05-15T10:26:28.717Z,3944.00
2019-05-15T10:27:28.839Z,3968.00
2019-05-15T10:28:29.401Z,3980.00
2019-05-15T10:29:28.648Z,4020.00
2019-05-15T10:30:28.695Z,4020.00
2019-05-15T10:31:28.619Z,4012.00
2019-05-15T10:32:29.124Z,4016.00
2019-05-15T10:33:29.568Z,4040.00
2019-05-15T10:34:28.957Z,4064.00
2019-05-15T10:35:31.487Z,4148.00
2019-05-15T10:36:28.555Z,4120.00
2019-05-15T10:37:28.733Z,4104.00
2019-05-15T10:38:28.729Z,4072.00
2019-05-15T10:39:28.874Z,4136.00
2019-05-15T10:40:29.626Z,4256.00
2019-05-15T10:41:28.502Z,4220.00
2019-05-15T10:42:29.108Z,4136.00
2019-05-15T10:43:28.857Z,4116.00
2019-05-15T10:44:28.637Z,4120.00
2019-05-15T10:45:29.587Z,4144.00
2019-05-15T10:46:28.465Z,4140.00
2019-05-15T10:47:29.338Z,4160.00
2019-05-15T10:48:29.425Z,4224.00
2019-05-15T10:49:28.418Z,4300.00
2019-05-15T10:50:28.605Z,4296.00
2019-05-15T10:51:28.710Z,4364.00
2019-05-15T10:52:28.760Z,2428.00
2019-05-15T10:53:29.687Z,4276.00
2019-05-15T10:54:29.323Z,4252.00
2019-05-15T10:55:28.885Z,3020.00
2019-05-15T10:56:29.162Z,4380.00
2019-05-15T10:57:28.324Z,4476.00
2019-05-15T10:58:28.698Z,4644.00
2019-05-15T10:59:28.307Z,4744.00
2019-05-15T11:00:28.710Z,4740.00
2019-05-15T11:01:28.295Z,4728.00
2019-05-15T11:02:29.016Z,4628.00
2019-05-15T11:03:29.793Z,4588.00
2019-05-15T11:04:28.826Z,4620.00
2019-05-15T11:05:40.549Z,4524.00
2019-05-15T11:06:29.231Z,4372.00
2019-05-15T11:07:28.510Z,4432.00
2019-05-15T11:08:28.953Z,4408.00
2019-05-15T11:09:28.690Z,4376.00
2019-05-15T11:10:28.990Z,4356.00
2019-05-15T11:11:28.171Z,4340.00
2019-05-15T11:12:29.249Z,4344.00
2019-05-15T11:13:28.857Z,4324.00
2019-05-15T11:14:28.709Z,4300.00
2019-05-15T11:15:29.092Z,4312.00
2019-05-15T11:16:28.375Z,4332.00
2019-05-15T11:17:29.074Z,4352.00
2019-05-15T11:18:30.744Z,4372.00
2019-05-15T11:19:35.791Z,4420.00
2019-05-15T11:20:29.082Z,4472.00
2019-05-15T11:21:28.056Z,4492.00
2019-05-15T11:22:29.808Z,4504.00
2019-05-15T11:23:29.347Z,4512.00
2019-05-15T11:24:28.244Z,4516.00
2019-05-15T11:25:30.103Z,4528.00
2019-05-15T11:26:33.094Z,4556.00
2019-05-15T11:27:31.404Z,4560.00
2019-05-15T11:28:31.742Z,4644.00
2019-05-15T11:29:27.967Z,4700.00
2019-05-15T11:30:27.979Z,4840.00
2019-05-15T11:31:28.619Z,4976.00
2019-05-15T11:32:29.361Z,5160.00
2019-05-15T11:33:29.239Z,5192.00
2019-05-15T11:34:29.068Z,5216.00
2019-05-15T11:35:28.529Z,5260.00
2019-05-15T11:36:28.783Z,5256.00
2019-05-15T11:37:28.376Z,5280.00
2019-05-15T11:38:28.907Z,5272.00
2019-05-15T11:39:28.828Z,5280.00
2019-05-15T11:40:28.329Z,5352.00
2019-05-15T11:41:29.535Z,5520.00
2019-05-15T11:42:28.833Z,5456.00
2019-05-15T11:43:29.267Z,3428.00
2019-05-15T11:44:28.281Z,5556.00
2019-05-15T11:45:29.041Z,5652.00
2019-05-15T11:46:29.099Z,5860.00
2019-05-15T11:47:27.945Z,6148.00
2019-05-15T11:48:29.908Z,6332.00
2019-05-15T11:49:29.021Z,6540.00
2019-05-15T11:50:29.260Z,6680.00
2019-05-15T11:51:29.044Z,6692.00
2019-05-15T11:52:29.392Z,5996.00
2019-05-15T11:53:28.417Z,6192.00
2019-05-15T11:54:28.272Z,3928.00
2019-05-15T11:55:29.180Z,5516.00
2019-05-15T11:56:29.612Z,4956.00
2019-05-15T11:57:39.665Z,6060.00
2019-05-15T11:58:28.671Z,6056.00
2019-05-15T11:59:29.800Z,5440.00
2019-05-15T12:00:30.203Z,5992.00
2019-05-15T12:01:28.782Z,6112.00
2019-05-15T12:02:29.327Z,6092.00
2019-05-15T12:03:29.017Z,6200.00
2019-05-15T12:04:33.610Z,6412.00
2019-05-15T12:05:28.872Z,6756.00
2019-05-15T12:06:29.226Z,7068.00
2019-05-15T12:07:29.006Z,7472.00
2019-05-15T12:08:29.378Z,7692.00
2019-05-15T12:09:28.264Z,7584.00
2019-05-15T12:10:28.879Z,7988.00
2019-05-15T12:11:36.059Z,8120.00
2019-05-15T12:12:31.810Z,8044.00
2019-05-15T12:13:28.016Z,7708.00
2019-05-15T12:14:29.612Z,7344.00
2019-05-15T12:15:27.995Z,6652.00
2019-05-15T12:16:28.962Z,6292.00
2019-05-15T12:17:28.471Z,6016.00
2019-05-15T12:18:28.500Z,3364.00
2019-05-15T12:19:29.182Z,3416.00
2019-05-15T12:20:28.624Z,4716.00
2019-05-15T12:21:28.696Z,5844.00
2019-05-15T12:22:28.961Z,5780.00
2019-05-15T12:23:29.141Z,5664.00
2019-05-15T12:25:31.594Z,3392.00
2019-05-15T12:26:29.326Z,5924.00
2019-05-15T12:27:28.333Z,5576.00